Time;durP1;ratioP1;P1;durP2;ratioP2;P2;SDS_P1;SDS_P2;PMS_P1;PMS_P2;Temp;Humidity;BMP_temperature;BMP_pressure;BME280_temperature;BME280_humidity;BME280_pressure;Samples;Min_cycle;Max_cycle;Signal;HPM_P1;HPM_P2
2022/07/24 00:01:15;;;;;;;7.05;6.45;;;;;;;;;;6238687;23;20069;-70
2022/07/24 00:03:41;;;;;;;6.60;6.03;;;;;;;;;;6238238;23;20082;-70
2022/07/24 00:06:07;;;;;;;7.13;6.00;;;;;;;;;;6238377;23;20031;-69
2022/07/24 00:08:33;;;;;;;7.35;6.70;;;;;;;;;;6239086;23;20008;-69
2022/07/24 00:10:59;;;;;;;6.72;6.22;;;;;;;;;;6236020;23;20009;-71
2022/07/24 00:13:25;;;;;;;7.35;6.32;;;;;;;;;;6209634;23;20100;-72
2022/07/24 00:15:51;;;;;;;6.65;6.07;;;;;;;;;;6236404;23;20003;-68
2022/07/24 00:18:17;;;;;;;6.47;5.97;;;;;;;;;;6236779;23;20026;-72
2022/07/24 00:20:45;;;;;;;6.90;6.28;;;;;;;;;;6236993;23;20006;-69
2022/07/24 00:23:12;;;;;;;7.75;6.60;;;;;;;;;;6235154;23;20012;-69
2022/07/24 00:25:38;;;;;;;8.93;6.03;;;;;;;;;;6237164;23;20373;-72
2022/07/24 00:28:04;;;;;;;7.72;6.22;;;;;;;;;;6238153;23;20007;-69
2022/07/24 00:30:30;;;;;;;7.38;6.72;;;;;;;;;;6238736;23;20425;-71
2022/07/24 00:32:56;;;;;;;6.43;5.93;;;;;;;;;;6238788;23;20019;-68
2022/07/24 00:35:22;;;;;;;6.93;6.43;;;;;;;;;;6236934;23;20002;-71
2022/07/24 00:37:49;;;;;;;6.95;5.95;;;;;;;;;;6238550;23;20020;-70
2022/07/24 00:40:16;;;;;;;12.23;6.75;;;;;;;;;;6238344;23;20039;-70
2022/07/24 00:42:42;;;;;;;7.18;6.50;;;;;;;;;;6238521;23;20000;-70
2022/07/24 00:45:09;;;;;;;7.35;6.65;;;;;;;;;;6238341;23;20000;-72
2022/07/24 00:47:35;;;;;;;8.95;5.90;;;;;;;;;;6238549;23;20057;-68
2022/07/24 00:50:04;;;;;;;7.18;6.43;;;;;;;;;;6236527;23;20069;-72
2022/07/24 00:52:30;;;;;;;6.78;6.18;;;;;;;;;;6238176;23;19997;-69
2022/07/24 00:54:56;;;;;;;6.93;6.22;;;;;;;;;;6237978;22;20007;-68
2022/07/24 00:57:23;;;;;;;7.15;6.35;;;;;;;;;;6238316;23;20046;-68
2022/07/24 00:59:49;;;;;;;7.43;6.78;;;;;;;;;;6238301;23;20024;-68
2022/07/24 01:02:15;;;;;;;6.88;6.30;;;;;;;;;;6234002;23;20243;-68
2022/07/24 01:04:41;;;;;;;8.20;7.00;;;;;;;;;;6233424;23;20377;-68
2022/07/24 01:07:08;;;;;;;7.25;6.65;;;;;;;;;;6231631;23;19996;-68
2022/07/24 01:09:35;;;;;;;7.78;7.18;;;;;;;;;;6232331;23;20000;-68
2022/07/24 01:12:01;;;;;;;7.47;6.82;;;;;;;;;;6231764;23;20010;-69
2022/07/24 01:14:27;;;;;;;8.02;7.10;;;;;;;;;;6232072;23;20024;-69
2022/07/24 01:16:54;;;;;;;7.80;7.10;;;;;;;;;;6232908;23;20004;-68
2022/07/24 01:19:20;;;;;;;8.52;7.75;;;;;;;;;;6203668;23;20506;-69
2022/07/24 01:21:48;;;;;;;7.60;6.90;;;;;;;;;;6232198;23;19996;-68
2022/07/24 01:24:14;;;;;;;8.25;7.43;;;;;;;;;;6204999;23;20015;-68
2022/07/24 01:26:40;;;;;;;8.02;7.40;;;;;;;;;;6231113;23;19999;-68
2022/07/24 01:29:06;;;;;;;8.57;7.38;;;;;;;;;;6232342;23;20012;-69
2022/07/24 01:31:32;;;;;;;7.55;6.85;;;;;;;;;;6229897;23;20039;-68
2022/07/24 01:33:58;;;;;;;7.63;6.90;;;;;;;;;;6229926;23;20004;-68
2022/07/24 01:36:24;;;;;;;8.38;6.68;;;;;;;;;;6232029;23;20000;-68
2022/07/24 01:38:51;;;;;;;7.60;6.88;;;;;;;;;;6230374;23;20012;-70
2022/07/24 01:41:17;;;;;;;7.15;6.53;;;;;;;;;;6232298;23;20433;-69
2022/07/24 01:43:43;;;;;;;7.13;6.53;;;;;;;;;;6231861;23;20417;-68
2022/07/24 01:46:09;;;;;;;7.18;6.47;;;;;;;;;;6205183;23;20004;-69
2022/07/24 01:48:35;;;;;;;6.93;6.22;;;;;;;;;;6232736;23;20016;-68
2022/07/24 01:51:01;;;;;;;8.68;6.43;;;;;;;;;;6230445;23;20003;-68
2022/07/24 01:53:28;;;;;;;7.07;6.38;;;;;;;;;;6204644;23;20345;-72
2022/07/24 01:55:54;;;;;;;8.27;6.95;;;;;;;;;;6232626;23;20000;-69
2022/07/24 01:58:20;;;;;;;7.55;6.85;;;;;;;;;;6232008;23;20015;-69
2022/07/24 02:00:47;;;;;;;7.00;6.40;;;;;;;;;;6232753;23;20684;-69
2022/07/24 02:03:13;;;;;;;7.28;6.65;;;;;;;;;;6229381;23;20061;-69
2022/07/24 02:05:39;;;;;;;7.60;6.90;;;;;;;;;;6232000;23;20036;-69
2022/07/24 02:08:06;;;;;;;7.60;6.82;;;;;;;;;;6232077;23;20028;-70
2022/07/24 02:10:32;;;;;;;8.60;7.53;;;;;;;;;;6231286;23;20078;-69
2022/07/24 02:12:58;;;;;;;7.80;7.10;;;;;;;;;;6230221;23;20012;-71
2022/07/24 02:15:25;;;;;;;9.60;7.45;;;;;;;;;;6231135;23;20455;-68
2022/07/24 02:17:53;;;;;;;8.52;7.72;;;;;;;;;;6231465;23;20016;-68
2022/07/24 02:20:20;;;;;;;9.45;7.30;;;;;;;;;;6230706;23;19996;-67
2022/07/24 02:22:46;;;;;;;7.95;7.18;;;;;;;;;;6232063;23;20016;-68
2022/07/24 02:25:13;;;;;;;8.55;7.75;;;;;;;;;;6231412;23;20040;-68
2022/07/24 02:27:39;;;;;;;11.10;8.05;;;;;;;;;;6232163;23;20321;-67
2022/07/24 02:30:06;;;;;;;8.25;7.43;;;;;;;;;;6232211;23;20062;-69
2022/07/24 02:32:32;;;;;;;9.40;8.40;;;;;;;;;;6228017;23;20031;-67
2022/07/24 02:34:58;;;;;;;8.80;7.90;;;;;;;;;;6231379;23;20008;-67
2022/07/24 02:37:25;;;;;;;9.85;8.25;;;;;;;;;;6231594;23;20004;-68
2022/07/24 02:39:51;;;;;;;8.40;7.60;;;;;;;;;;6206654;23;20129;-71
2022/07/24 02:42:17;;;;;;;8.35;7.55;;;;;;;;;;6193162;23;20012;-67
2022/07/24 02:44:43;;;;;;;10.35;7.93;;;;;;;;;;6233867;23;20601;-68
2022/07/24 02:47:09;;;;;;;8.30;7.00;;;;;;;;;;6207428;23;20602;-68
2022/07/24 02:49:35;;;;;;;10.82;7.90;;;;;;;;;;6233654;23;20027;-67
2022/07/24 02:52:02;;;;;;;9.85;7.35;;;;;;;;;;6233916;23;20000;-68
2022/07/24 02:54:28;;;;;;;9.05;7.30;;;;;;;;;;6231538;22;19996;-68
2022/07/24 02:56:54;;;;;;;7.47;6.88;;;;;;;;;;6233715;23;20031;-67
2022/07/24 02:59:21;;;;;;;9.57;7.00;;;;;;;;;;6207109;23;20050;-67
2022/07/24 03:01:47;;;;;;;7.93;7.00;;;;;;;;;;6231777;23;20649;-67
2022/07/24 03:04:13;;;;;;;7.95;7.15;;;;;;;;;;6233343;23;20004;-66
2022/07/24 03:06:39;;;;;;;7.43;6.72;;;;;;;;;;6233064;23;20004;-69
2022/07/24 03:09:05;;;;;;;7.78;6.68;;;;;;;;;;6233693;23;20004;-67
2022/07/24 03:11:31;;;;;;;8.05;7.25;;;;;;;;;;6231941;23;20063;-67
2022/07/24 03:13:58;;;;;;;7.38;6.68;;;;;;;;;;6232979;23;20407;-67
2022/07/24 03:16:24;;;;;;;6.95;6.15;;;;;;;;;;6233524;23;20001;-67
2022/07/24 03:18:50;;;;;;;7.13;6.53;;;;;;;;;;6229754;23;20008;-68
2022/07/24 03:21:17;;;;;;;7.75;6.50;;;;;;;;;;6231033;23;20008;-68
2022/07/24 03:23:43;;;;;;;7.28;6.57;;;;;;;;;;6228646;23;20018;-67
2022/07/24 03:26:09;;;;;;;7.60;6.63;;;;;;;;;;6202878;23;20698;-69
2022/07/24 03:28:36;;;;;;;8.18;6.40;;;;;;;;;;6230550;23;20062;-69
2022/07/24 03:31:02;;;;;;;7.07;6.47;;;;;;;;;;6230526;23;20000;-67
2022/07/24 03:33:28;;;;;;;7.43;6.72;;;;;;;;;;6228118;23;20034;-68
2022/07/24 03:35:55;;;;;;;7.43;6.72;;;;;;;;;;6228522;23;20752;-68
2022/07/24 03:38:22;;;;;;;8.35;6.95;;;;;;;;;;6229888;23;20020;-68
2022/07/24 03:40:48;;;;;;;7.97;7.18;;;;;;;;;;6230394;23;20429;-67
2022/07/24 03:43:14;;;;;;;7.68;7.05;;;;;;;;;;6230746;23;20008;-67
2022/07/24 03:45:40;;;;;;;8.77;7.70;;;;;;;;;;6230499;23;20023;-69
2022/07/24 03:48:06;;;;;;;8.98;8.07;;;;;;;;;;6228825;23;20121;-67
2022/07/24 03:50:33;;;;;;;10.07;8.40;;;;;;;;;;6229785;23;20008;-68
2022/07/24 03:52:59;;;;;;;8.90;8.00;;;;;;;;;;6230693;23;20007;-68
2022/07/24 03:55:25;;;;;;;8.98;8.07;;;;;;;;;;6230514;22;20070;-67
2022/07/24 03:57:51;;;;;;;12.43;8.20;;;;;;;;;;6229473;23;20004;-70
2022/07/24 04:00:17;;;;;;;7.97;7.18;;;;;;;;;;6216079;23;20141;-68
2022/07/24 04:02:43;;;;;;;8.25;7.35;;;;;;;;;;6229988;23;20349;-68
2022/07/24 04:05:10;;;;;;;11.55;7.80;;;;;;;;;;6230135;23;20004;-68
2022/07/24 04:07:36;;;;;;;8.50;7.78;;;;;;;;;;6230357;23;20039;-68
2022/07/24 04:10:03;;;;;;;8.38;7.68;;;;;;;;;;6229555;23;20061;-68
2022/07/24 04:12:29;;;;;;;8.60;7.80;;;;;;;;;;6230344;23;20007;-70
2022/07/24 04:14:55;;;;;;;9.60;8.77;;;;;;;;;;6227645;23;20008;-67
2022/07/24 04:17:21;;;;;;;9.10;8.07;;;;;;;;;;6230023;23;20028;-67
2022/07/24 04:19:47;;;;;;;9.38;8.48;;;;;;;;;;6230698;23;20087;-68
2022/07/24 04:22:14;;;;;;;8.32;7.53;;;;;;;;;;6230200;23;20035;-68
2022/07/24 04:24:40;;;;;;;8.27;7.43;;;;;;;;;;6230186;23;20008;-67
2022/07/24 04:27:06;;;;;;;8.13;7.38;;;;;;;;;;6229199;23;20003;-68
2022/07/24 04:29:32;;;;;;;8.00;7.25;;;;;;;;;;6228646;23;20062;-69
2022/07/24 04:31:59;;;;;;;8.25;7.45;;;;;;;;;;6227546;23;20010;-68
2022/07/24 04:34:25;;;;;;;10.60;8.70;;;;;;;;;;6229408;23;20015;-68
2022/07/24 04:36:51;;;;;;;9.18;8.27;;;;;;;;;;6229966;23;20608;-68
2022/07/24 04:39:17;;;;;;;9.18;8.07;;;;;;;;;;6227428;23;20610;-67
2022/07/24 04:41:43;;;;;;;17.02;8.85;;;;;;;;;;6230513;23;20291;-67
2022/07/24 04:44:09;;;;;;;10.30;8.38;;;;;;;;;;6229984;23;20058;-68
2022/07/24 04:46:36;;;;;;;10.82;8.50;;;;;;;;;;6229911;23;20273;-71
2022/07/24 04:49:02;;;;;;;11.00;8.50;;;;;;;;;;6229549;23;20008;-67
2022/07/24 04:51:28;;;;;;;9.88;8.98;;;;;;;;;;6229766;23;20004;-67
2022/07/24 04:53:54;;;;;;;10.43;9.43;;;;;;;;;;6227319;23;20420;-68
2022/07/24 04:56:20;;;;;;;12.88;9.60;;;;;;;;;;6229585;22;20000;-67
2022/07/24 04:58:47;;;;;;;14.90;9.55;;;;;;;;;;6230292;23;20074;-67
2022/07/24 05:01:13;;;;;;;9.82;9.00;;;;;;;;;;6202779;23;20008;-67
2022/07/24 05:03:39;;;;;;;10.95;8.68;;;;;;;;;;6227602;23;20445;-68
2022/07/24 05:06:05;;;;;;;9.80;8.88;;;;;;;;;;6229950;23;20011;-69
2022/07/24 05:08:32;;;;;;;9.02;8.15;;;;;;;;;;6229818;23;20065;-69
2022/07/24 05:10:58;;;;;;;9.57;8.60;;;;;;;;;;6229823;23;20473;-71
2022/07/24 05:13:24;;;;;;;10.68;9.15;;;;;;;;;;6229322;23;20020;-69
2022/07/24 05:15:50;;;;;;;9.93;8.98;;;;;;;;;;6228979;23;20000;-70
2022/07/24 05:18:16;;;;;;;12.13;9.38;;;;;;;;;;6227119;23;20000;-68
2022/07/24 05:20:42;;;;;;;15.70;9.57;;;;;;;;;;6228774;23;20031;-67
2022/07/24 05:23:09;;;;;;;10.10;9.15;;;;;;;;;;6227805;23;20008;-67
2022/07/24 05:25:35;;;;;;;10.57;9.43;;;;;;;;;;6227718;23;20012;-70
2022/07/24 05:28:01;;;;;;;12.07;9.43;;;;;;;;;;6228531;23;20008;-67
2022/07/24 05:30:27;;;;;;;9.13;8.32;;;;;;;;;;6226351;23;20069;-67
2022/07/24 05:32:54;;;;;;;9.00;7.90;;;;;;;;;;6227219;23;20457;-67
2022/07/24 05:35:20;;;;;;;10.95;8.63;;;;;;;;;;6228734;23;20019;-68
2022/07/24 05:37:46;;;;;;;9.57;8.48;;;;;;;;;;6228702;23;20008;-72
2022/07/24 05:40:12;;;;;;;8.82;8.02;;;;;;;;;;6227433;23;20012;-72
2022/07/24 05:42:39;;;;;;;11.00;8.27;;;;;;;;;;6229663;23;20090;-71
2022/07/24 05:45:05;;;;;;;9.88;8.88;;;;;;;;;;6229294;23;20338;-70
2022/07/24 05:47:41;;;;;;;8.68;7.78;;;;;;;;;;6228587;23;20008;-70
2022/07/24 05:50:11;;;;;;;9.05;8.15;;;;;;;;;;6199458;23;20018;-70
2022/07/24 05:52:37;;;;;;;8.70;7.65;;;;;;;;;;6227916;23;20004;-71
2022/07/24 05:55:04;;;;;;;11.63;7.93;;;;;;;;;;6226980;22;20008;-71
2022/07/24 05:57:30;;;;;;;8.50;7.70;;;;;;;;;;6225938;23;20008;-71
2022/07/24 05:59:56;;;;;;;13.95;8.15;;;;;;;;;;6226762;23;20031;-71
2022/07/24 06:02:22;;;;;;;9.45;8.48;;;;;;;;;;6227122;23;20005;-71
2022/07/24 06:04:49;;;;;;;7.90;7.10;;;;;;;;;;6227029;23;20704;-70
2022/07/24 06:07:15;;;;;;;7.95;7.25;;;;;;;;;;6227725;23;20477;-70
2022/07/24 06:09:41;;;;;;;7.80;6.95;;;;;;;;;;6227368;23;20014;-72
2022/07/24 06:12:07;;;;;;;7.82;7.03;;;;;;;;;;6228783;23;20012;-71
2022/07/24 06:14:34;;;;;;;7.70;7.10;;;;;;;;;;6230315;23;20008;-71
2022/07/24 06:17:00;;;;;;;9.15;7.07;;;;;;;;;;6230938;23;20004;-71
2022/07/24 06:19:27;;;;;;;7.90;7.13;;;;;;;;;;6230205;23;20489;-71
2022/07/24 06:21:53;;;;;;;9.95;7.82;;;;;;;;;;6231446;23;20076;-71
2022/07/24 06:24:19;;;;;;;7.68;7.05;;;;;;;;;;6205024;23;20664;-71
2022/07/24 06:26:45;;;;;;;8.05;7.45;;;;;;;;;;6229627;23;20050;-70
2022/07/24 06:29:12;;;;;;;8.02;7.25;;;;;;;;;;6231279;23;20574;-72
2022/07/24 06:31:38;;;;;;;7.75;7.00;;;;;;;;;;6231457;23;20035;-70
2022/07/24 06:34:04;;;;;;;8.73;7.82;;;;;;;;;;6203378;23;20437;-71
2022/07/24 06:36:30;;;;;;;9.43;7.80;;;;;;;;;;6229521;23;20004;-71
2022/07/24 06:38:56;;;;;;;7.70;6.85;;;;;;;;;;6231012;23;20015;-71
2022/07/24 06:41:22;;;;;;;9.90;7.80;;;;;;;;;;6230843;23;20027;-70
2022/07/24 06:43:48;;;;;;;8.27;7.55;;;;;;;;;;6230869;23;20012;-70
2022/07/24 06:46:15;;;;;;;8.07;7.30;;;;;;;;;;6231441;23;20057;-70
2022/07/24 06:48:41;;;;;;;8.70;7.90;;;;;;;;;;6229277;23;20004;-71
2022/07/24 06:51:07;;;;;;;9.07;7.65;;;;;;;;;;6228066;23;20008;-72
2022/07/24 06:53:33;;;;;;;9.15;7.47;;;;;;;;;;6230532;23;20000;-72
2022/07/24 06:55:59;;;;;;;8.88;8.15;;;;;;;;;;6230518;22;20320;-70
2022/07/24 06:58:25;;;;;;;11.05;9.70;;;;;;;;;;6231200;23;20008;-71
2022/07/24 07:00:51;;;;;;;11.45;10.13;;;;;;;;;;6201636;23;20010;-71
2022/07/24 07:03:18;;;;;;;10.57;9.43;;;;;;;;;;6230333;23;20207;-70
2022/07/24 07:05:44;;;;;;;12.60;11.30;;;;;;;;;;6231407;23;20026;-71
2022/07/24 07:08:10;;;;;;;9.73;8.80;;;;;;;;;;6230813;23;20004;-70
2022/07/24 07:10:36;;;;;;;8.52;7.32;;;;;;;;;;6228674;23;19992;-71
2022/07/24 07:13:03;;;;;;;8.18;6.78;;;;;;;;;;6230658;23;20053;-70
2022/07/24 07:15:29;;;;;;;18.75;7.85;;;;;;;;;;6231115;23;20457;-70
2022/07/24 07:17:55;;;;;;;8.07;7.28;;;;;;;;;;6230794;23;20012;-70
2022/07/24 07:20:21;;;;;;;7.93;7.20;;;;;;;;;;6230562;23;20079;-71
2022/07/24 07:22:47;;;;;;;8.63;7.57;;;;;;;;;;6230644;23;20013;-71
2022/07/24 07:25:13;;;;;;;7.32;6.72;;;;;;;;;;6207653;23;20329;-72
2022/07/24 07:27:40;;;;;;;7.88;6.90;;;;;;;;;;6208430;23;20012;-72
2022/07/24 07:30:06;;;;;;;8.27;7.07;;;;;;;;;;6232963;23;20019;-72
2022/07/24 07:32:33;;;;;;;8.18;6.53;;;;;;;;;;6235122;23;20000;-72
2022/07/24 07:34:59;;;;;;;9.38;7.15;;;;;;;;;;6235758;23;20000;-72
2022/07/24 07:37:25;;;;;;;6.90;6.30;;;;;;;;;;6235145;23;20007;-71
2022/07/24 07:39:51;;;;;;;8.15;6.70;;;;;;;;;;6235435;23;20018;-71
2022/07/24 07:42:17;;;;;;;7.93;6.45;;;;;;;;;;6221772;23;20011;-72
2022/07/24 07:44:43;;;;;;;7.25;6.65;;;;;;;;;;6235566;23;20000;-72
2022/07/24 07:47:09;;;;;;;7.13;6.15;;;;;;;;;;6235850;23;19996;-72
2022/07/24 07:49:35;;;;;;;7.53;6.30;;;;;;;;;;6236221;23;20010;-72
2022/07/24 07:52:02;;;;;;;7.85;5.93;;;;;;;;;;6209033;23;20000;-72
2022/07/24 07:54:28;;;;;;;6.68;6.07;;;;;;;;;;6235641;22;20031;-72
2022/07/24 07:56:54;;;;;;;6.40;5.90;;;;;;;;;;6234710;23;20000;-72
2022/07/24 07:59:20;;;;;;;7.13;6.43;;;;;;;;;;6235271;23;20022;-72
2022/07/24 08:01:46;;;;;;;8.18;6.63;;;;;;;;;;6235010;23;20002;-72
2022/07/24 08:04:13;;;;;;;7.38;6.55;;;;;;;;;;6235344;23;20015;-72
2022/07/24 08:06:39;;;;;;;6.45;5.85;;;;;;;;;;6233403;23;19996;-74
2022/07/24 08:09:05;;;;;;;7.65;6.28;;;;;;;;;;6235523;23;20087;-71
2022/07/24 08:11:31;;;;;;;7.20;6.53;;;;;;;;;;6235432;23;20077;-75
2022/07/24 08:13:57;;;;;;;7.10;6.18;;;;;;;;;;6234341;23;20020;-75
2022/07/24 08:16:23;;;;;;;7.43;6.57;;;;;;;;;;6233354;23;20024;-72
2022/07/24 08:18:50;;;;;;;9.77;6.10;;;;;;;;;;6234858;23;20111;-73
2022/07/24 08:21:17;;;;;;;7.93;6.38;;;;;;;;;;6234865;23;20015;-75
2022/07/24 08:23:44;;;;;;;8.57;6.63;;;;;;;;;;6234669;23;20031;-70
2022/07/24 08:26:11;;;;;;;7.28;6.50;;;;;;;;;;6235228;23;20003;-72
2022/07/24 08:28:37;;;;;;;6.78;5.97;;;;;;;;;;6233734;23;20108;-75
2022/07/24 08:31:03;;;;;;;6.82;5.97;;;;;;;;;;6235084;23;20314;-74
2022/07/24 08:33:29;;;;;;;6.65;5.80;;;;;;;;;;6234839;23;20004;-74
2022/07/24 08:35:56;;;;;;;10.68;5.95;;;;;;;;;;6235354;23;19996;-74
2022/07/24 08:38:22;;;;;;;8.38;6.00;;;;;;;;;;6232839;23;20551;-74
2022/07/24 08:40:48;;;;;;;8.25;6.70;;;;;;;;;;6234892;23;20437;-74
2022/07/24 08:43:14;;;;;;;7.07;6.25;;;;;;;;;;6206065;23;20039;-74
2022/07/24 08:45:43;;;;;;;6.35;5.35;;;;;;;;;;6233254;23;20003;-74
2022/07/24 08:48:10;;;;;;;7.57;6.00;;;;;;;;;;6206775;23;20353;-73
2022/07/24 08:50:38;;;;;;;6.18;5.68;;;;;;;;;;6232108;23;20597;-73
2022/07/24 08:53:04;;;;;;;6.03;5.50;;;;;;;;;;6232814;23;20472;-74
2022/07/24 08:55:31;;;;;;;6.28;5.50;;;;;;;;;;6233397;22;20000;-75
2022/07/24 08:57:58;;;;;;;6.75;6.15;;;;;;;;;;6233806;23;20008;-74
2022/07/24 09:00:25;;;;;;;5.80;5.30;;;;;;;;;;6234935;23;20004;-74
2022/07/24 09:02:51;;;;;;;6.55;5.95;;;;;;;;;;6234813;23;20000;-75
2022/07/24 09:05:17;;;;;;;14.25;5.65;;;;;;;;;;6234877;23;20024;-74
2022/07/24 09:07:43;;;;;;;6.05;5.50;;;;;;;;;;6235228;23;20004;-75
2022/07/24 09:10:11;;;;;;;5.65;5.15;;;;;;;;;;6233046;23;19996;-74
2022/07/24 09:12:39;;;;;;;7.93;5.22;;;;;;;;;;6233246;23;20695;-73
2022/07/24 09:15:14;;;;;;;5.68;5.28;;;;;;;;;;6232873;23;20000;-75
2022/07/24 09:17:48;;;;;;;7.32;5.00;;;;;;;;;;6234129;23;20032;-76
2022/07/24 09:20:14;;;;;;;6.00;5.50;;;;;;;;;;6234362;23;20446;-76
2022/07/24 09:22:41;;;;;;;5.80;5.30;;;;;;;;;;6232797;23;20546;-75
2022/07/24 09:25:13;;;;;;;7.07;5.18;;;;;;;;;;6234613;23;20008;-76
2022/07/24 09:27:41;;;;;;;5.50;5.10;;;;;;;;;;6234172;23;20051;-77
2022/07/24 09:30:08;;;;;;;5.63;5.13;;;;;;;;;;6233895;23;20031;-73
2022/07/24 09:32:36;;;;;;;6.28;4.97;;;;;;;;;;6234412;23;20605;-76
2022/07/24 09:35:02;;;;;;;5.60;5.10;;;;;;;;;;6231457;23;20079;-72
2022/07/24 09:37:29;;;;;;;5.90;5.40;;;;;;;;;;6233572;23;20008;-72
2022/07/24 09:40:06;;;;;;;5.50;5.00;;;;;;;;;;6233069;23;20008;-73
2022/07/24 09:42:38;;;;;;;5.78;5.18;;;;;;;;;;6234050;23;20421;-73
2022/07/24 09:45:05;;;;;;;6.20;5.60;;;;;;;;;;6231739;23;20421;-75
2022/07/24 09:47:34;;;;;;;8.85;5.82;;;;;;;;;;6230877;23;20008;-73
2022/07/24 09:50:11;;;;;;;6.57;6.03;;;;;;;;;;6233867;23;20423;-72
2022/07/24 09:52:38;;;;;;;7.70;5.60;;;;;;;;;;6234129;23;20004;-74
2022/07/24 09:55:04;;;;;;;5.80;5.30;;;;;;;;;;6226749;22;20058;-75
2022/07/24 09:57:31;;;;;;;6.97;4.93;;;;;;;;;;6233216;23;20034;-69
2022/07/24 10:00:01;;;;;;;6.72;5.13;;;;;;;;;;6234309;23;20018;-72
2022/07/24 10:02:29;;;;;;;5.50;5.00;;;;;;;;;;6234116;23;20075;-74
2022/07/24 10:04:56;;;;;;;5.55;5.05;;;;;;;;;;6233660;23;20007;-73
2022/07/24 10:07:23;;;;;;;8.50;5.03;;;;;;;;;;6234684;23;20027;-72
2022/07/24 10:09:51;;;;;;;5.68;5.07;;;;;;;;;;6206594;23;20016;-70
2022/07/24 10:12:19;;;;;;;5.57;5.10;;;;;;;;;;6221303;23;20050;-73
2022/07/24 10:14:46;;;;;;;5.53;5.03;;;;;;;;;;6233816;23;20004;-72
2022/07/24 10:17:12;;;;;;;5.50;4.80;;;;;;;;;;6233806;23;20000;-74
2022/07/24 10:19:45;;;;;;;6.45;4.72;;;;;;;;;;6230339;23;20010;-74
2022/07/24 10:22:12;;;;;;;5.35;4.85;;;;;;;;;;6207067;23;20075;-74
2022/07/24 10:24:54;;;;;;;5.80;5.10;;;;;;;;;;6233951;23;20337;-73
2022/07/24 10:27:25;;;;;;;5.75;5.15;;;;;;;;;;6234246;23;20460;-71
2022/07/24 10:29:52;;;;;;;8.68;5.28;;;;;;;;;;6231750;23;20012;-73
2022/07/24 10:32:19;;;;;;;5.82;5.20;;;;;;;;;;6233465;23;20004;-73
2022/07/24 10:34:57;;;;;;;7.95;5.05;;;;;;;;;;6234234;23;20008;-74
2022/07/24 10:37:26;;;;;;;7.90;5.20;;;;;;;;;;6233861;23;20007;-73
2022/07/24 10:40:15;;;;;;;6.50;5.20;;;;;;;;;;6231194;23;20005;-74
2022/07/24 10:43:00;;;;;;;6.18;4.82;;;;;;;;;;6217521;23;20019;-71
2022/07/24 10:45:30;;;;;;;5.68;4.63;;;;;;;;;;6233829;23;20004;-73
2022/07/24 10:47:57;;;;;;;6.55;4.93;;;;;;;;;;6234072;23;20062;-72
2022/07/24 10:50:23;;;;;;;5.93;4.45;;;;;;;;;;6232385;23;20341;-74
2022/07/24 10:52:49;;;;;;;6.53;4.90;;;;;;;;;;6233605;23;20008;-74
2022/07/24 10:55:32;;;;;;;5.20;4.80;;;;;;;;;;6203893;23;19997;-73
2022/07/24 10:58:02;;;;;;;5.22;4.82;;;;;;;;;;6233783;23;20008;-73
2022/07/24 11:00:34;;;;;;;5.70;4.40;;;;;;;;;;6232141;23;20169;-72
2022/07/24 11:03:05;;;;;;;6.10;4.55;;;;;;;;;;6232073;23;20214;-71
2022/07/24 11:05:33;;;;;;;5.38;4.72;;;;;;;;;;6234116;23;20027;-73
2022/07/24 11:08:17;;;;;;;5.95;5.35;;;;;;;;;;6233588;23;19996;-74
2022/07/24 11:10:46;;;;;;;6.78;5.05;;;;;;;;;;6234392;23;20000;-72
2022/07/24 11:13:30;;;;;;;7.50;5.45;;;;;;;;;;6233567;23;20030;-73
2022/07/24 11:16:12;;;;;;;6.30;5.32;;;;;;;;;;6235666;23;20092;-73
2022/07/24 11:18:39;;;;;;;5.57;5.07;;;;;;;;;;6235299;23;20507;-73
2022/07/24 11:21:06;;;;;;;5.85;5.25;;;;;;;;;;6209199;23;20008;-75
2022/07/24 11:23:32;;;;;;;7.60;5.15;;;;;;;;;;6233543;23;20061;-72
2022/07/24 11:26:20;;;;;;;6.05;5.50;;;;;;;;;;6235704;23;20660;-74
2022/07/24 11:29:05;;;;;;;5.15;4.75;;;;;;;;;;6235466;23;20011;-70
2022/07/24 11:31:32;;;;;;;5.47;4.78;;;;;;;;;;6236030;23;20075;-69
2022/07/24 11:34:00;;;;;;;5.03;4.63;;;;;;;;;;6236237;23;20347;-72
2022/07/24 11:36:26;;;;;;;5.13;4.63;;;;;;;;;;6235696;23;20008;-70
2022/07/24 11:38:53;;;;;;;6.70;4.97;;;;;;;;;;6233999;23;20022;-70
2022/07/24 11:41:19;;;;;;;6.05;4.75;;;;;;;;;;6235369;23;19996;-70
2022/07/24 11:43:54;;;;;;;7.57;5.75;;;;;;;;;;6235573;23;20008;-69
2022/07/24 11:46:34;;;;;;;5.85;5.13;;;;;;;;;;6233280;23;20087;-69
2022/07/24 11:49:07;;;;;;;6.60;5.30;;;;;;;;;;6235405;23;20047;-69
2022/07/24 11:51:33;;;;;;;5.97;4.93;;;;;;;;;;6208757;23;20356;-70
2022/07/24 11:54:01;;;;;;;4.90;4.50;;;;;;;;;;6235726;22;20815;-69
2022/07/24 11:56:30;;;;;;;6.60;5.43;;;;;;;;;;6233045;23;20000;-69
2022/07/24 11:58:56;;;;;;;8.38;6.00;;;;;;;;;;6234782;23;20012;-69
2022/07/24 12:01:23;;;;;;;5.75;5.20;;;;;;;;;;6235065;23;20007;-70
2022/07/24 12:03:53;;;;;;;8.48;5.20;;;;;;;;;;6235057;23;20031;-68
2022/07/24 12:06:19;;;;;;;6.22;5.47;;;;;;;;;;6228242;23;20020;-68
2022/07/24 12:08:46;;;;;;;5.70;5.20;;;;;;;;;;6229168;23;20366;-68
2022/07/24 12:11:20;;;;;;;5.30;4.80;;;;;;;;;;6228692;23;20004;-68
2022/07/24 12:13:46;;;;;;;7.10;5.40;;;;;;;;;;6227854;23;20372;-70
2022/07/24 12:16:14;;;;;;;6.10;5.50;;;;;;;;;;6202939;23;20046;-68
2022/07/24 12:18:41;;;;;;;8.75;5.50;;;;;;;;;;6228543;23;20008;-69
2022/07/24 12:21:09;;;;;;;6.05;5.15;;;;;;;;;;6226897;23;20007;-68
2022/07/24 12:23:35;;;;;;;7.38;4.95;;;;;;;;;;6228706;23;20010;-67
2022/07/24 12:26:02;;;;;;;5.10;4.60;;;;;;;;;;6226160;23;20004;-68
2022/07/24 12:28:28;;;;;;;6.18;4.20;;;;;;;;;;6229599;23;20019;-68
2022/07/24 12:30:55;;;;;;;4.90;4.50;;;;;;;;;;6226416;23;20030;-67
2022/07/24 12:33:23;;;;;;;4.88;4.07;;;;;;;;;;6229428;23;20000;-68
2022/07/24 12:36:08;;;;;;;5.00;4.50;;;;;;;;;;6228532;23;20083;-69
2022/07/24 12:38:35;;;;;;;5.20;4.00;;;;;;;;;;6229430;23;20445;-67
2022/07/24 12:41:06;;;;;;;4.50;3.85;;;;;;;;;;6226961;23;20068;-68
2022/07/24 12:43:32;;;;;;;4.80;4.30;;;;;;;;;;6228391;23;20441;-68
2022/07/24 12:46:06;;;;;;;5.50;5.03;;;;;;;;;;6227981;23;20004;-71
2022/07/24 12:48:32;;;;;;;6.18;4.68;;;;;;;;;;6228543;23;20004;-71
2022/07/24 12:50:59;;;;;;;4.30;3.90;;;;;;;;;;6229042;23;20500;-68
2022/07/24 12:53:27;;;;;;;6.43;5.18;;;;;;;;;;6226645;23;20475;-69
2022/07/24 12:56:04;;;;;;;4.95;4.55;;;;;;;;;;6229412;22;20004;-68
2022/07/24 12:58:30;;;;;;;5.13;4.60;;;;;;;;;;6201662;23;20019;-68
2022/07/24 13:00:59;;;;;;;5.00;4.50;;;;;;;;;;6228948;23;20003;-69
2022/07/24 13:03:26;;;;;;;5.25;4.55;;;;;;;;;;6226015;23;20008;-68
2022/07/24 13:05:56;;;;;;;4.85;4.45;;;;;;;;;;6229231;23;20011;-70
2022/07/24 13:08:22;;;;;;;5.43;4.40;;;;;;;;;;6229216;23;20023;-68
2022/07/24 13:10:48;;;;;;;4.57;4.18;;;;;;;;;;6228587;23;20065;-68
2022/07/24 13:13:14;;;;;;;4.47;4.10;;;;;;;;;;6228509;23;20023;-69
2022/07/24 13:15:40;;;;;;;5.05;4.28;;;;;;;;;;6229347;23;20039;-69
2022/07/24 13:18:06;;;;;;;4.68;4.28;;;;;;;;;;6226356;23;20008;-68
2022/07/24 13:20:32;;;;;;;4.20;3.80;;;;;;;;;;6229861;23;20010;-68
2022/07/24 13:22:59;;;;;;;4.70;4.30;;;;;;;;;;6228096;23;20004;-68
2022/07/24 13:25:25;;;;;;;4.28;3.90;;;;;;;;;;6226393;23;20004;-68
2022/07/24 13:27:51;;;;;;;5.03;4.57;;;;;;;;;;6227367;23;20007;-68
2022/07/24 13:30:17;;;;;;;4.18;3.88;;;;;;;;;;6228354;23;20011;-71
2022/07/24 13:32:43;;;;;;;9.43;4.32;;;;;;;;;;6228986;23;20090;-70
2022/07/24 13:35:10;;;;;;;5.28;4.50;;;;;;;;;;6228402;23;20656;-68
2022/07/24 13:37:36;;;;;;;6.13;5.05;;;;;;;;;;6227146;23;20023;-68
2022/07/24 13:40:04;;;;;;;7.05;5.22;;;;;;;;;;6228407;23;20046;-68
2022/07/24 13:42:31;;;;;;;5.07;4.57;;;;;;;;;;6228624;23;20087;-68
2022/07/24 13:44:57;;;;;;;5.45;4.93;;;;;;;;;;6227120;23;20075;-69
2022/07/24 13:47:23;;;;;;;5.57;4.38;;;;;;;;;;6228898;23;20001;-69
2022/07/24 13:49:50;;;;;;;4.70;4.35;;;;;;;;;;6228633;23;20771;-69
2022/07/24 13:52:16;;;;;;;5.90;5.30;;;;;;;;;;6228370;23;20055;-69
2022/07/24 13:54:42;;;;;;;7.85;4.93;;;;;;;;;;6227784;22;20004;-69
2022/07/24 13:57:08;;;;;;;6.78;4.78;;;;;;;;;;6201498;23;20004;-68
2022/07/24 13:59:35;;;;;;;5.15;4.75;;;;;;;;;;6226933;23;20016;-78
2022/07/24 14:02:01;;;;;;;5.07;4.68;;;;;;;;;;6228171;23;20011;-77
2022/07/24 14:04:27;;;;;;;6.88;4.63;;;;;;;;;;6228336;23;20008;-78
2022/07/24 14:06:53;;;;;;;5.50;4.78;;;;;;;;;;6227382;23;20004;-77
2022/07/24 14:09:19;;;;;;;5.22;4.72;;;;;;;;;;6228965;23;20004;-76
2022/07/24 14:11:46;;;;;;;5.15;4.68;;;;;;;;;;6229304;23;20508;-77
2022/07/24 14:14:12;;;;;;;4.80;4.40;;;;;;;;;;6226115;23;20012;-77
2022/07/24 14:16:38;;;;;;;7.15;4.57;;;;;;;;;;6228649;23;20827;-77
2022/07/24 14:19:04;;;;;;;4.72;4.32;;;;;;;;;;6227436;23;20572;-78
2022/07/24 14:21:33;;;;;;;4.63;4.22;;;;;;;;;;6228798;23;20001;-77
2022/07/24 14:23:59;;;;;;;5.18;4.57;;;;;;;;;;6227744;23;20686;-75
2022/07/24 14:26:25;;;;;;;4.65;4.25;;;;;;;;;;6225455;23;20006;-75
2022/07/24 14:28:52;;;;;;;5.43;4.18;;;;;;;;;;6227205;23;20144;-74
2022/07/24 14:31:18;;;;;;;4.85;4.45;;;;;;;;;;6201528;23;20002;-76
2022/07/24 14:33:44;;;;;;;5.28;4.78;;;;;;;;;;6228069;23;20000;-72
2022/07/24 14:36:10;;;;;;;5.03;4.63;;;;;;;;;;6229963;23;20000;-69
2022/07/24 14:38:36;;;;;;;5.10;4.70;;;;;;;;;;6230565;23;20005;-76
2022/07/24 14:41:02;;;;;;;6.20;4.65;;;;;;;;;;6231243;23;20008;-76